الصفحة الرئيسية
METAR-TAF:

METAR-TAF

مطار :

Taree, أستراليا

دائرة عرض: 31-53-19S, خط طول: 152-30-50E, ارتفاع: 12 متر

مراقبة الطقس الحالي

تاريخ ووقت الإصدار 55 دقيقة قبل الساعة 06:00UTC
ريح 11 عقدة من الجنوب الشرقي
درجة الحرارة 21°درجة مئوية
الرطوبة 56%
ضغط 1016 hPa
الرؤية 10 كم أو أكثر

METAR: YTRE 060600Z AUTO 14011KT 9999 // ////// 21/12 Q1016

زمن: 16:55 (06:55 UTC)

توقعات

تاريخ ووقت الإصدار 5ساعات و 20 دقيقة قبل الساعة 01:35UTC
التوقعات صالحة من06 الساعة 02 UTC إلى 06 الساعة 14 UTC
ريح 8 عقدة من الغرب/الجنوب الغربي
الرؤية 10 كم أو أكثر
الغيوم لا تقل 1500 م ولا وجود لمزنة ركامية السحاب الأسود
من 06 الساعة 0300 UTC
ريح 10 عقدة من الجنوب
الرؤية 10 كم أو أكثر
غيوم متفرقة على ارتفاع 4000 قدم
من 06 الساعة 1000 UTC
ريح 8 عقدة من الغرب
الرؤية 10 كم أو أكثر
غيوم متفرقة على ارتفاع 4000 قدم

TAF: YTRE 060135Z 0602/0614 25008KT CAVOK FM060300 17010KT 9999 SCT040 FM061000 26008KT 9999 SCT040

أرصاد الطقس والتوقعات من أكثر من 4000 مطار (تقارير الطقس للمطار METAR والتنبؤ بالطقس بالمطارTAF).

المحطات المتاحة هي النقط الصفراء والحمراء على الخريطة.

حرك المؤشر فوق النقطة لمعرفة اسم المحطة.

ثم انقر لمعرفة أرصاد وتوقعات الطقس.

لتغيير الخارطة: اضغط على الأزرار الخضراء مع رمز الصليب الأسود للتكبير. على الزر الأخضر مع شرطة للتصغير، أو على الأسهم الخضراء للخرائط المجاورة.


METAR-TAF: